createdAt,value
2023-05-24T00:01:58.881Z,7.50
2023-05-24T00:04:30.644Z,8.30
2023-05-24T00:06:59.052Z,8.73
2023-05-24T00:09:27.948Z,7.00
2023-05-24T00:11:56.383Z,8.60
2023-05-24T00:14:26.613Z,8.30
2023-05-24T00:16:55.191Z,7.27
2023-05-24T00:19:24.053Z,10.43
2023-05-24T00:21:52.426Z,6.50
2023-05-24T00:24:20.761Z,7.70
2023-05-24T00:26:49.590Z,7.80
2023-05-24T00:29:17.836Z,7.63
2023-05-24T00:31:47.581Z,8.23
2023-05-24T00:34:16.086Z,8.17
2023-05-24T00:36:47.037Z,10.17
2023-05-24T00:39:17.370Z,6.87
2023-05-24T00:41:45.680Z,6.80
2023-05-24T00:44:14.019Z,7.03
2023-05-24T00:46:43.157Z,8.60
2023-05-24T00:49:13.296Z,8.87
2023-05-24T00:51:41.791Z,9.03
2023-05-24T00:54:10.241Z,7.53
2023-05-24T00:56:38.647Z,7.33
2023-05-24T00:59:06.866Z,6.23
2023-05-24T01:01:36.352Z,6.97
2023-05-24T01:04:05.727Z,7.80
2023-05-24T01:06:46.086Z,7.93
2023-05-24T01:09:24.249Z,7.27
2023-05-24T01:12:12.951Z,7.40
2023-05-24T01:14:54.751Z,8.70
2023-05-24T01:17:28.465Z,9.63
2023-05-24T01:20:06.955Z,7.63
2023-05-24T01:23:03.135Z,8.27
2023-05-24T01:25:46.552Z,8.10
2023-05-24T01:28:18.780Z,9.37
2023-05-24T01:30:47.734Z,8.03
2023-05-24T01:33:16.408Z,8.33
2023-05-24T01:35:44.876Z,12.00
2023-05-24T01:38:15.947Z,6.87
2023-05-24T01:40:45.654Z,6.87
2023-05-24T01:43:23.357Z,8.83
2023-05-24T01:46:01.345Z,7.50
2023-05-24T01:48:39.758Z,8.60
2023-05-24T01:51:11.748Z,6.57
2023-05-24T01:53:46.570Z,8.43
2023-05-24T01:56:16.196Z,7.23
2023-05-24T01:58:48.003Z,9.90
2023-05-24T02:01:16.723Z,7.73
2023-05-24T02:03:45.151Z,6.77
2023-05-24T02:06:13.434Z,9.33
2023-05-24T02:08:41.776Z,8.63
2023-05-24T02:11:10.089Z,8.77
2023-05-24T02:13:38.385Z,8.27
2023-05-24T02:16:08.510Z,7.57
2023-05-24T02:18:36.840Z,10.73
2023-05-24T02:21:06.602Z,8.87
2023-05-24T02:23:34.945Z,9.17
2023-05-24T02:26:03.181Z,9.83
2023-05-24T02:28:32.494Z,11.20
2023-05-24T02:31:01.226Z,10.37
2023-05-24T02:33:31.082Z,9.03
2023-05-24T02:35:59.434Z,10.93
2023-05-24T02:38:27.701Z,7.20
2023-05-24T02:40:56.285Z,11.07
2023-05-24T02:43:24.597Z,8.43
2023-05-24T02:45:52.954Z,8.53
2023-05-24T02:48:21.292Z,10.07
2023-05-24T02:50:50.938Z,8.57
2023-05-24T02:53:21.696Z,9.97
2023-05-24T02:55:51.164Z,9.50
2023-05-24T02:58:19.769Z,10.47
2023-05-24T03:00:50.424Z,10.83
2023-05-24T03:03:21.290Z,9.00
2023-05-24T03:05:51.175Z,8.33
2023-05-24T03:08:19.543Z,8.57
2023-05-24T03:10:48.214Z,9.37
2023-05-24T03:13:16.668Z,9.83
2023-05-24T03:15:45.244Z,9.13
2023-05-24T03:18:14.762Z,10.93
2023-05-24T03:20:44.785Z,9.37
2023-05-24T03:23:16.458Z,8.70
2023-05-24T03:25:45.747Z,8.27
2023-05-24T03:28:15.994Z,9.97
2023-05-24T03:30:45.603Z,8.63
2023-05-24T03:33:16.404Z,10.13
2023-05-24T03:35:44.902Z,12.03
2023-05-24T03:38:13.319Z,9.27
2023-05-24T03:40:46.649Z,10.10
2023-05-24T03:43:19.079Z,9.47
2023-05-24T03:45:51.611Z,8.57
2023-05-24T03:48:21.628Z,9.87
2023-05-24T03:50:51.649Z,11.73
2023-05-24T03:53:20.938Z,10.90
2023-05-24T03:55:52.717Z,10.33
2023-05-24T03:58:21.026Z,9.43
2023-05-24T04:00:49.360Z,10.83
2023-05-24T04:03:20.301Z,9.63
2023-05-24T04:05:49.358Z,10.80
2023-05-24T04:08:17.901Z,11.87
2023-05-24T04:10:46.385Z,12.77
2023-05-24T04:13:16.425Z,8.17
2023-05-24T04:15:44.826Z,10.13
2023-05-24T04:18:13.306Z,10.73
2023-05-24T04:20:42.294Z,9.73
2023-05-24T04:23:11.555Z,10.93
2023-05-24T04:25:39.995Z,12.00
2023-05-24T04:28:09.316Z,11.33
2023-05-24T04:30:39.000Z,10.77
2023-05-24T04:33:08.643Z,9.93
2023-05-24T04:35:38.210Z,12.40
2023-05-24T04:38:07.444Z,11.60
2023-05-24T04:40:35.753Z,12.63
2023-05-24T04:43:04.033Z,9.60
2023-05-24T04:45:33.989Z,8.73
2023-05-24T04:48:03.980Z,10.80
2023-05-24T04:50:32.290Z,10.10
2023-05-24T04:53:00.588Z,10.60
2023-05-24T04:55:28.913Z,9.07
2023-05-24T04:57:57.497Z,10.10
2023-05-24T05:00:26.084Z,10.27
2023-05-24T05:02:54.467Z,15.43
2023-05-24T05:05:24.304Z,10.10
2023-05-24T05:07:52.606Z,10.30
2023-05-24T05:10:23.633Z,10.90
2023-05-24T05:12:52.324Z,11.90
2023-05-24T05:15:22.263Z,10.80
2023-05-24T05:17:50.826Z,10.30
2023-05-24T05:20:19.566Z,11.60
2023-05-24T05:22:49.942Z,11.43
2023-05-24T05:25:18.389Z,8.97
2023-05-24T05:27:46.825Z,10.03
2023-05-24T05:30:15.828Z,7.93
2023-05-24T05:32:44.365Z,10.17
2023-05-24T05:35:12.819Z,12.50
2023-05-24T05:37:41.366Z,7.50
2023-05-24T05:40:11.977Z,9.33
2023-05-24T05:42:40.257Z,8.87
2023-05-24T05:45:09.597Z,12.33
2023-05-24T05:47:37.909Z,7.73
2023-05-24T05:50:07.035Z,8.53
2023-05-24T05:52:35.398Z,10.70
2023-05-24T05:55:03.788Z,11.83
2023-05-24T05:57:33.475Z,8.37
2023-05-24T06:00:01.959Z,8.77
2023-05-24T06:02:40.411Z,12.13
2023-05-24T06:05:09.529Z,9.17
2023-05-24T06:07:38.870Z,12.20
2023-05-24T06:10:08.770Z,10.73
2023-05-24T06:12:38.807Z,8.30
2023-05-24T06:15:08.674Z,8.67
2023-05-24T06:17:38.100Z,9.13
2023-05-24T06:20:08.353Z,8.80
2023-05-24T06:22:38.666Z,10.90
2023-05-24T06:25:08.406Z,9.60
2023-05-24T06:27:38.634Z,11.57
2023-05-24T06:30:09.109Z,11.00
2023-05-24T06:32:37.812Z,10.70
2023-05-24T06:35:07.339Z,10.80
2023-05-24T06:37:36.259Z,9.93
2023-05-24T06:40:06.926Z,11.53
2023-05-24T06:42:38.861Z,10.33
2023-05-24T06:45:09.539Z,9.73
2023-05-24T06:47:38.644Z,12.63
2023-05-24T06:50:09.650Z,8.57
2023-05-24T06:52:38.260Z,10.67
2023-05-24T06:55:07.239Z,10.37
2023-05-24T06:57:35.496Z,9.80
2023-05-24T07:00:09.867Z,10.83
2023-05-24T07:02:38.260Z,8.73
2023-05-24T07:05:10.656Z,9.53
2023-05-24T07:07:39.598Z,9.77
2023-05-24T07:10:09.318Z,8.67
2023-05-24T07:12:37.872Z,12.97
2023-05-24T07:15:09.910Z,11.93
2023-05-24T07:17:38.346Z,8.53
2023-05-24T07:20:10.563Z,8.67
2023-05-24T07:22:39.057Z,12.47
2023-05-24T07:25:08.254Z,12.37
2023-05-24T07:27:36.905Z,7.73
2023-05-24T07:30:16.460Z,10.00
2023-05-24T07:32:53.046Z,10.27
2023-05-24T07:35:23.995Z,14.80
2023-05-24T07:37:52.738Z,12.27
2023-05-24T07:40:21.606Z,11.97
2023-05-24T07:42:50.458Z,9.33
2023-05-24T07:45:20.518Z,10.13
2023-05-24T07:47:48.954Z,7.80
2023-05-24T07:50:17.647Z,9.93
2023-05-24T07:52:46.234Z,10.83
2023-05-24T07:55:14.543Z,12.00
2023-05-24T07:57:42.917Z,9.47
2023-05-24T08:00:14.934Z,11.77
2023-05-24T08:02:46.464Z,9.23
2023-05-24T08:05:15.145Z,12.50
2023-05-24T08:07:43.391Z,10.97
2023-05-24T08:10:13.719Z,10.10
2023-05-24T08:12:42.536Z,10.87
2023-05-24T08:15:11.925Z,10.90
2023-05-24T08:17:40.437Z,9.77
2023-05-24T08:20:14.295Z,10.03
2023-05-24T08:22:43.575Z,11.10
2023-05-24T08:25:12.210Z,9.33
2023-05-24T08:27:40.739Z,10.53
2023-05-24T08:30:11.086Z,10.10
2023-05-24T08:32:39.465Z,10.60
2023-05-24T08:35:20.403Z,12.00
2023-05-24T08:37:51.588Z,9.60
2023-05-24T08:40:20.053Z,10.77
2023-05-24T08:42:50.962Z,9.10
2023-05-24T08:45:22.183Z,8.87
2023-05-24T08:47:52.595Z,11.40
2023-05-24T08:50:21.853Z,12.93
2023-05-24T08:52:52.681Z,13.07
2023-05-24T08:55:21.455Z,12.53
2023-05-24T08:57:51.389Z,9.67
2023-05-24T09:00:20.551Z,14.80
2023-05-24T09:02:50.233Z,9.30
2023-05-24T09:05:21.716Z,9.17
2023-05-24T09:07:51.685Z,8.70
2023-05-24T09:10:22.508Z,10.77
2023-05-24T09:12:55.747Z,7.73
2023-05-24T09:15:24.069Z,11.27
2023-05-24T09:17:52.411Z,10.73
2023-05-24T09:20:21.896Z,11.40
2023-05-24T09:22:54.235Z,12.57
2023-05-24T09:25:22.900Z,9.82
2023-05-24T09:27:52.136Z,9.27
2023-05-24T09:30:21.169Z,11.70
2023-05-24T09:32:57.708Z,9.77
2023-05-24T09:35:27.287Z,9.25
2023-05-24T09:37:59.736Z,11.90
2023-05-24T09:40:28.386Z,9.68
2023-05-24T09:43:07.666Z,9.00
2023-05-24T09:45:44.372Z,11.63
2023-05-24T09:48:13.703Z,9.00
2023-05-24T09:50:42.270Z,10.73
2023-05-24T09:53:12.534Z,8.60
2023-05-24T09:55:41.044Z,9.07
2023-05-24T09:58:12.741Z,10.30
2023-05-24T10:00:42.555Z,8.68
2023-05-24T10:03:13.637Z,7.65
2023-05-24T10:05:45.738Z,9.40
2023-05-24T10:08:18.322Z,9.77
2023-05-24T10:10:47.806Z,8.05
2023-05-24T10:13:17.790Z,7.32
2023-05-24T10:15:46.254Z,9.73
2023-05-24T10:18:14.811Z,8.50
2023-05-24T10:20:44.233Z,7.65
2023-05-24T10:23:21.262Z,7.70
2023-05-24T10:25:56.555Z,9.20
2023-05-24T10:28:26.308Z,8.65
2023-05-24T10:31:07.314Z,9.80
2023-05-24T10:33:38.362Z,9.65
2023-05-24T10:36:09.949Z,10.55
2023-05-24T10:38:41.538Z,11.00
2023-05-24T10:41:10.354Z,10.02
2023-05-24T10:43:39.299Z,11.48
2023-05-24T10:46:11.121Z,8.02
2023-05-24T10:48:43.058Z,8.27
2023-05-24T10:51:38.720Z,7.60
2023-05-24T10:54:20.012Z,9.57
2023-05-24T10:56:50.418Z,9.25
2023-05-24T10:59:29.672Z,6.78
2023-05-24T11:01:59.236Z,8.95
2023-05-24T11:04:29.452Z,8.00
2023-05-24T11:07:00.444Z,7.05
2023-05-24T11:09:30.738Z,8.40
2023-05-24T11:12:04.489Z,8.10
2023-05-24T11:14:33.471Z,5.20
2023-05-24T11:17:02.306Z,8.20
2023-05-24T11:19:34.085Z,5.93
2023-05-24T11:22:05.152Z,5.68
2023-05-24T11:24:35.955Z,7.22
2023-05-24T11:27:06.087Z,7.10
2023-05-24T11:29:41.031Z,5.43
2023-05-24T11:32:10.550Z,5.68
2023-05-24T11:34:40.014Z,7.45
2023-05-24T11:37:08.296Z,6.43
2023-05-24T11:39:39.228Z,5.25
2023-05-24T11:42:08.656Z,5.43
2023-05-24T11:44:39.045Z,5.35
2023-05-24T11:47:09.552Z,5.18
2023-05-24T11:49:37.793Z,3.65
2023-05-24T11:52:06.419Z,6.13
2023-05-24T11:54:35.124Z,7.32
2023-05-24T11:57:06.368Z,8.30
2023-05-24T11:59:37.825Z,6.75
2023-05-24T12:02:07.985Z,7.55
2023-05-24T12:04:36.604Z,8.18
2023-05-24T12:07:05.266Z,5.72
2023-05-24T12:09:33.457Z,9.25
2023-05-24T12:12:01.972Z,6.13
2023-05-24T12:14:34.824Z,7.93
2023-05-24T12:17:03.493Z,7.07
2023-05-24T12:19:34.810Z,5.65
2023-05-24T12:22:06.607Z,4.78
2023-05-24T12:24:35.858Z,7.25
2023-05-24T12:27:07.437Z,5.90
2023-05-24T12:29:38.894Z,6.80
2023-05-24T12:32:12.314Z,5.10
2023-05-24T12:34:42.101Z,5.00
2023-05-24T12:37:12.220Z,7.20
2023-05-24T12:39:42.654Z,6.07
2023-05-24T12:42:13.185Z,5.63
2023-05-24T12:44:45.034Z,6.57
2023-05-24T12:47:13.519Z,4.68
2023-05-24T12:49:41.784Z,5.45
2023-05-24T12:52:10.014Z,5.28
2023-05-24T12:54:38.324Z,6.05
2023-05-24T12:57:07.325Z,5.03
2023-05-24T12:59:35.856Z,7.05
2023-05-24T13:02:05.493Z,4.45
2023-05-24T13:04:36.147Z,3.50
2023-05-24T13:07:04.584Z,4.65
2023-05-24T13:09:34.232Z,4.07
2023-05-24T13:12:02.957Z,4.82
2023-05-24T13:14:31.348Z,5.50
2023-05-24T13:17:00.005Z,5.90
2023-05-24T13:19:29.653Z,8.25
2023-05-24T13:21:58.001Z,4.68
2023-05-24T13:24:27.193Z,5.70
2023-05-24T13:26:55.525Z,5.25
2023-05-24T13:31:55.472Z,4.72
2023-05-24T13:34:24.640Z,5.32
2023-05-24T13:36:55.073Z,4.35
2023-05-24T13:39:23.904Z,5.80
2023-05-24T13:41:52.467Z,5.30
2023-05-24T13:44:21.469Z,5.20
2023-05-24T13:46:50.126Z,5.97
2023-05-24T13:49:18.704Z,4.95
2023-05-24T13:51:47.644Z,5.20
2023-05-24T13:54:17.581Z,4.63
2023-05-24T13:56:45.995Z,3.30
2023-05-24T13:59:14.481Z,5.22
2023-05-24T14:01:43.106Z,6.78
2023-05-24T14:04:11.324Z,11.13
2023-05-24T14:06:39.663Z,6.03
2023-05-24T14:09:08.456Z,5.68
2023-05-24T14:11:38.406Z,9.00
2023-05-24T14:14:57.908Z,3.95
2023-05-24T14:16:55.373Z,6.18
2023-05-24T14:19:23.785Z,3.72
2023-05-24T14:21:52.094Z,3.17
2023-05-24T14:24:21.164Z,4.43
2023-05-24T14:26:50.809Z,4.20
2023-05-24T14:29:19.147Z,4.65
2023-05-24T14:31:47.535Z,5.75
2023-05-24T14:34:16.774Z,4.20
2023-05-24T14:36:45.691Z,3.47
2023-05-24T14:39:13.919Z,4.15
2023-05-24T14:41:42.196Z,4.05
2023-05-24T14:44:11.923Z,3.90
2023-05-24T14:46:41.729Z,3.65
2023-05-24T14:49:10.359Z,5.60
2023-05-24T14:51:38.527Z,3.25
2023-05-24T14:54:06.849Z,3.35
2023-05-24T14:56:35.290Z,3.90
2023-05-24T14:59:03.649Z,3.80
2023-05-24T15:01:33.484Z,5.25
2023-05-24T15:04:01.769Z,4.30
2023-05-24T15:06:34.764Z,6.50
2023-05-24T15:09:03.215Z,5.22
2023-05-24T15:11:31.531Z,4.82
2023-05-24T15:14:00.152Z,4.10
2023-05-24T15:16:28.607Z,4.07
2023-05-24T15:18:58.242Z,5.70
2023-05-24T15:21:26.798Z,5.78
2023-05-24T15:23:55.003Z,4.50
2023-05-24T15:26:23.550Z,10.38
2023-05-24T15:28:51.830Z,4.70
2023-05-24T15:31:20.346Z,2.90
2023-05-24T15:33:48.905Z,3.88
2023-05-24T15:36:19.018Z,5.32
2023-05-24T15:38:47.358Z,8.07
2023-05-24T15:41:15.698Z,6.10
2023-05-24T15:43:43.885Z,4.45
2023-05-24T15:46:12.203Z,4.57
2023-05-24T15:48:40.485Z,6.68
2023-05-24T15:53:41.661Z,4.93
2023-05-24T15:56:10.498Z,8.45
2023-05-24T15:58:38.791Z,5.88
2023-05-24T16:01:07.464Z,4.55
2023-05-24T16:03:38.057Z,6.60
2023-05-24T16:06:07.000Z,6.38
2023-05-24T16:08:35.287Z,5.03
2023-05-24T16:11:08.329Z,5.28
2023-05-24T16:13:36.686Z,6.50
2023-05-24T16:16:05.509Z,5.88
2023-05-24T16:18:35.435Z,4.50
2023-05-24T16:21:04.095Z,8.60
2023-05-24T16:23:32.400Z,6.20
2023-05-24T16:26:00.726Z,4.88
2023-05-24T16:28:30.358Z,3.90
2023-05-24T16:31:00.233Z,4.32
2023-05-24T16:33:28.490Z,3.92
2023-05-24T16:35:56.883Z,6.38
2023-05-24T16:38:26.532Z,7.35
2023-05-24T16:40:54.884Z,4.80
2023-05-24T16:43:23.077Z,6.20
2023-05-24T16:45:52.966Z,4.47
2023-05-24T16:48:28.126Z,4.70
2023-05-24T16:50:57.164Z,4.32
2023-05-24T16:53:26.419Z,5.82
2023-05-24T16:55:55.919Z,4.45
2023-05-24T16:58:26.249Z,5.30
2023-05-24T17:00:56.215Z,4.43
2023-05-24T17:03:28.727Z,4.45
2023-05-24T17:06:02.992Z,4.75
2023-05-24T17:08:34.509Z,5.30
2023-05-24T17:11:02.932Z,5.97
2023-05-24T17:13:31.549Z,5.53
2023-05-24T17:16:04.566Z,3.85
2023-05-24T17:18:33.065Z,5.22
2023-05-24T17:21:02.976Z,5.60
2023-05-24T17:23:32.722Z,5.68
2023-05-24T17:26:02.821Z,4.30
2023-05-24T17:28:31.491Z,5.65
2023-05-24T17:31:02.225Z,4.13
2023-05-24T17:33:31.682Z,3.97
2023-05-24T17:36:02.922Z,5.97
2023-05-24T17:38:33.975Z,4.53
2023-05-24T17:41:02.312Z,4.20
2023-05-24T17:43:32.654Z,8.13
2023-05-24T17:46:06.533Z,5.25
2023-05-24T17:48:37.037Z,6.70
2023-05-24T17:51:07.311Z,7.57
2023-05-24T17:53:38.350Z,5.85
2023-05-24T17:56:07.523Z,9.13
2023-05-24T17:58:37.390Z,6.28
2023-05-24T18:01:09.158Z,7.40
2023-05-24T18:03:38.744Z,6.75
2023-05-24T18:06:08.090Z,5.35
2023-05-24T18:08:38.744Z,6.10
2023-05-24T18:11:10.148Z,7.93
2023-05-24T18:13:39.595Z,6.85
2023-05-24T18:16:11.747Z,8.95
2023-05-24T18:18:40.925Z,7.68
2023-05-24T18:21:09.572Z,5.03
2023-05-24T18:23:39.388Z,7.28
2023-05-24T18:26:08.893Z,7.50
2023-05-24T18:28:39.532Z,7.15
2023-05-24T18:31:11.054Z,9.15
2023-05-24T18:33:39.392Z,7.53
2023-05-24T18:36:08.279Z,8.00
2023-05-24T18:38:37.458Z,7.13
2023-05-24T18:41:09.438Z,8.18
2023-05-24T18:43:37.900Z,10.13
2023-05-24T18:46:06.422Z,8.40
2023-05-24T18:48:36.675Z,7.27
2023-05-24T18:51:06.809Z,7.83
2023-05-24T18:53:36.732Z,8.50
2023-05-24T18:56:05.946Z,9.17
2023-05-24T18:58:35.071Z,8.40
2023-05-24T19:01:04.080Z,8.77
2023-05-24T19:03:33.411Z,8.13
2023-05-24T19:06:04.312Z,11.30
2023-05-24T19:08:38.906Z,9.83
2023-05-24T19:11:10.266Z,11.70
2023-05-24T19:13:40.068Z,8.63
2023-05-24T19:16:08.975Z,7.77
2023-05-24T19:18:38.374Z,9.87
2023-05-24T19:21:09.375Z,9.57
2023-05-24T19:23:38.176Z,9.40
2023-05-24T19:26:07.143Z,8.57
2023-05-24T19:28:37.851Z,9.77
2023-05-24T19:31:06.600Z,6.80
2023-05-24T19:33:35.959Z,10.13
2023-05-24T19:36:10.591Z,8.30
2023-05-24T19:38:39.044Z,8.43
2023-05-24T19:41:07.495Z,8.80
2023-05-24T19:43:36.259Z,9.97
2023-05-24T19:46:05.732Z,8.70
2023-05-24T19:48:34.107Z,8.40
2023-05-24T19:51:02.498Z,8.43
2023-05-24T19:53:32.348Z,10.27
2023-05-24T19:56:01.092Z,10.10
2023-05-24T19:58:30.410Z,8.07
2023-05-24T20:00:58.913Z,10.33
2023-05-24T20:03:27.673Z,8.63
2023-05-24T20:05:56.040Z,9.33
2023-05-24T20:08:25.660Z,10.20
2023-05-24T20:10:55.848Z,6.87
2023-05-24T20:13:24.154Z,9.20
2023-05-24T20:15:54.378Z,9.63
2023-05-24T20:18:25.069Z,10.97
2023-05-24T20:20:55.103Z,10.27
2023-05-24T20:23:27.316Z,7.67
2023-05-24T20:25:57.284Z,7.57
2023-05-24T20:28:30.163Z,10.27
2023-05-24T20:31:00.327Z,8.17
2023-05-24T20:33:28.842Z,10.93
2023-05-24T20:35:57.272Z,10.03
2023-05-24T20:38:25.726Z,9.40
2023-05-24T20:40:54.226Z,10.47
2023-05-24T20:43:23.788Z,7.30
2023-05-24T20:45:52.111Z,7.53
2023-05-24T20:48:20.413Z,7.67
2023-05-24T20:50:48.730Z,8.77
2023-05-24T20:53:17.030Z,7.97
2023-05-24T20:55:45.503Z,9.40
2023-05-24T20:58:15.305Z,9.73
2023-05-24T21:00:45.747Z,8.97
2023-05-24T21:03:14.486Z,8.47
2023-05-24T21:05:43.342Z,11.43
2023-05-24T21:08:11.798Z,7.83
2023-05-24T21:10:40.100Z,9.73
2023-05-24T21:13:08.489Z,7.53
2023-05-24T21:15:36.764Z,9.30
2023-05-24T21:18:06.480Z,8.13
2023-05-24T21:20:34.884Z,7.77
2023-05-24T21:23:03.288Z,8.03
2023-05-24T21:25:31.566Z,5.83
2023-05-24T21:27:59.810Z,7.87
2023-05-24T21:30:28.048Z,9.23
2023-05-24T21:32:56.368Z,11.50
2023-05-24T21:35:27.140Z,12.23
2023-05-24T21:37:55.459Z,11.20
2023-05-24T21:40:23.816Z,9.03
2023-05-24T21:42:52.056Z,9.27
2023-05-24T21:45:20.347Z,10.37
2023-05-24T21:47:48.590Z,10.77
2023-05-24T21:50:16.911Z,9.13
2023-05-24T21:52:46.665Z,9.17
2023-05-24T21:55:14.907Z,7.63
2023-05-24T21:57:43.903Z,7.70
2023-05-24T22:00:14.266Z,7.30
2023-05-24T22:02:43.435Z,7.40
2023-05-24T22:05:12.447Z,7.73
2023-05-24T22:07:41.588Z,8.97
2023-05-24T22:10:12.810Z,9.50
2023-05-24T22:12:41.292Z,7.07
2023-05-24T22:15:10.895Z,6.70
2023-05-24T22:17:41.165Z,11.30
2023-05-24T22:20:10.809Z,7.03
2023-05-24T22:22:48.216Z,7.90
2023-05-24T22:25:19.617Z,9.70
2023-05-24T22:27:49.541Z,8.30
2023-05-24T22:30:18.321Z,9.27
2023-05-24T22:32:46.689Z,7.47
2023-05-24T22:35:15.066Z,9.23
2023-05-24T22:37:43.859Z,6.83
2023-05-24T22:40:13.460Z,6.93
2023-05-24T22:42:43.176Z,9.70
2023-05-24T22:45:12.193Z,8.03
2023-05-24T22:47:40.546Z,6.60
2023-05-24T22:50:10.114Z,9.17
2023-05-24T22:52:42.392Z,7.47
2023-05-24T22:55:11.162Z,8.43
2023-05-24T22:57:39.629Z,8.20
2023-05-24T23:00:11.917Z,8.87
2023-05-24T23:02:40.309Z,7.53
2023-05-24T23:05:09.835Z,6.63
2023-05-24T23:07:39.881Z,10.03
2023-05-24T23:10:09.343Z,11.23
2023-05-24T23:12:37.708Z,10.57
2023-05-24T23:15:06.593Z,9.90
2023-05-24T23:17:36.438Z,9.03
2023-05-24T23:20:06.128Z,9.97
2023-05-24T23:22:34.460Z,7.37
2023-05-24T23:25:03.403Z,9.07
2023-05-24T23:27:31.806Z,6.83
2023-05-24T23:30:00.248Z,8.97
2023-05-24T23:32:28.678Z,9.73
2023-05-24T23:34:58.401Z,9.30
2023-05-24T23:37:26.952Z,8.93
2023-05-24T23:39:55.355Z,8.70
2023-05-24T23:42:23.684Z,7.40
2023-05-24T23:44:52.126Z,7.50
2023-05-24T23:47:20.501Z,11.17
2023-05-24T23:49:48.847Z,8.43
2023-05-24T23:52:18.706Z,13.23
2023-05-24T23:54:47.155Z,8.20
2023-05-24T23:57:17.450Z,11.90
2023-05-24T23:59:45.874Z,8.20
